Time;durP1;ratioP1;P1;durP2;ratioP2;P2;SDS_P1;SDS_P2;PMS_P1;PMS_P2;Temp;Humidity;BMP_temperature;BMP_pressure;BME280_temperature;BME280_humidity;BME280_pressure;Samples;Min_cycle;Max_cycle;Signal;HPM_P1;HPM_P2
2022/11/16 00:02:14;;;;;;;23.45;12.75;;;;;;;6.91;80.93;99753.98;1629866;88;21054;-61
2022/11/16 00:04:43;;;;;;;20.52;12.75;;;;;;;6.92;81.00;99750.22;1629884;87;21057;-59
2022/11/16 00:07:12;;;;;;;21.80;12.15;;;;;;;6.92;81.00;99750.22;1629860;88;21085;-58
2022/11/16 00:09:42;;;;;;;23.32;12.45;;;;;;;6.93;81.09;99746.46;1629765;88;21569;-59
2022/11/16 00:12:12;;;;;;;24.57;12.93;;;;;;;6.95;81.08;99744.39;1629762;88;21097;-59
2022/11/16 00:14:41;;;;;;;21.87;13.05;;;;;;;6.96;81.16;99737.91;1629652;87;21013;-58
2022/11/16 00:17:11;;;;;;;21.93;12.25;;;;;;;6.96;81.22;99736.55;1629713;88;21038;-60
2022/11/16 00:19:40;;;;;;;21.75;12.50;;;;;;;6.98;81.24;99741.28;1629929;87;21446;-58
2022/11/16 00:22:09;;;;;;;21.37;12.03;;;;;;;6.97;81.24;99734.99;1631320;87;21053;-59
2022/11/16 00:24:38;;;;;;;23.00;12.07;;;;;;;6.99;81.20;99729.36;1636987;88;21465;-59
2022/11/16 00:27:07;;;;;;;22.02;12.58;;;;;;;7.00;81.11;99732.41;1636876;88;21045;-60
2022/11/16 00:29:36;;;;;;;23.87;12.33;;;;;;;7.00;81.15;99721.52;1636968;88;21072;-60
2022/11/16 00:32:06;;;;;;;22.90;13.45;;;;;;;6.98;81.23;99724.95;1637015;88;21037;-60
2022/11/16 00:34:36;;;;;;;25.88;14.03;;;;;;;6.98;81.33;99722.22;1662349;86;20983;-59
2022/11/16 00:37:05;;;;;;;24.80;13.50;;;;;;;6.97;81.34;99723.26;1637109;88;21080;-59
2022/11/16 00:39:37;;;;;;;29.00;14.55;;;;;;;6.98;81.37;99720.86;1637037;86;21069;-60
2022/11/16 00:42:06;;;;;;;27.70;13.62;;;;;;;6.99;81.36;99723.39;1636731;88;21108;-59
2022/11/16 00:44:35;;;;;;;23.38;13.43;;;;;;;6.98;81.39;99718.14;1637021;86;21073;-60
2022/11/16 00:47:05;;;;;;;27.15;14.70;;;;;;;7.00;81.51;99709.26;1636855;88;21052;-59
2022/11/16 00:49:34;;;;;;;26.37;13.95;;;;;;;7.01;81.49;99709.58;1636816;88;21056;-60
2022/11/16 00:52:03;;;;;;;22.87;12.80;;;;;;;7.00;81.45;99705.17;1637017;88;21080;-59
2022/11/16 00:54:33;;;;;;;24.80;13.35;;;;;;;7.00;81.51;99702.45;1637095;86;21077;-58
2022/11/16 00:57:03;;;;;;;26.15;14.20;;;;;;;7.00;81.57;99703.30;1637057;88;21097;-59
2022/11/16 00:59:32;;;;;;;24.30;13.30;;;;;;;7.00;81.56;99691.55;1637008;88;21521;-59
2022/11/16 01:02:01;;;;;;;25.25;13.85;;;;;;;6.98;81.58;99694.47;1637149;88;21074;-59
2022/11/16 01:04:30;;;;;;;23.98;13.78;;;;;;;6.96;81.66;99692.45;1637102;88;21060;-59
2022/11/16 01:07:00;;;;;;;26.50;13.50;;;;;;;6.95;81.76;99690.77;1636732;88;21089;-59
2022/11/16 01:09:30;;;;;;;24.60;12.55;;;;;;;6.97;81.83;99697.38;1636896;88;21085;-61
2022/11/16 01:12:08;;;;;;;25.25;13.65;;;;;;;6.98;81.85;99689.02;1637014;88;21460;-61
2022/11/16 01:14:42;;;;;;;24.52;13.03;;;;;;;6.98;81.90;99680.86;1588813;90;21560;-59
2022/11/16 01:17:13;;;;;;;22.40;13.05;;;;;;;6.98;81.91;99680.01;1619826;88;21100;-59
2022/11/16 01:19:42;;;;;;;21.30;12.73;;;;;;;6.98;81.97;99674.05;1619699;88;21082;-60
2022/11/16 01:22:10;;;;;;;22.60;12.65;;;;;;;6.99;81.93;99669.44;1618768;88;21053;-59
2022/11/16 01:24:40;;;;;;;23.05;12.82;;;;;;;6.97;81.94;99668.79;1608387;89;21091;-58
2022/11/16 01:27:09;;;;;;;21.95;12.45;;;;;;;6.97;81.98;99667.43;1608325;88;21066;-60
2022/11/16 01:29:41;;;;;;;26.97;13.55;;;;;;;6.99;82.09;99668.08;1576022;91;21131;-60
2022/11/16 01:32:10;;;;;;;26.02;14.13;;;;;;;6.99;82.16;99665.36;1595968;88;21061;-59
2022/11/16 01:34:41;;;;;;;23.57;13.05;;;;;;;6.99;82.17;99659.91;1629665;87;21077;-59
2022/11/16 01:37:14;;;;;;;23.80;12.33;;;;;;;6.99;82.28;99655.83;1627586;88;21077;-60
2022/11/16 01:39:44;;;;;;;25.55;13.32;;;;;;;6.98;82.30;99658.22;1615482;89;21043;-59
2022/11/16 01:42:20;;;;;;;24.90;13.78;;;;;;;6.97;82.29;99660.63;1629684;87;21037;-61
2022/11/16 01:45:04;;;;;;;26.33;14.00;;;;;;;6.96;82.40;99660.30;1630015;88;21041;-59
2022/11/16 01:47:35;;;;;;;26.23;13.48;;;;;;;6.95;82.42;99657.25;1629655;88;21061;-59
2022/11/16 01:50:12;;;;;;;27.95;14.73;;;;;;;6.91;82.62;99654.58;1629658;87;21497;-58
2022/11/16 01:52:49;;;;;;;25.90;13.70;;;;;;;6.90;82.71;99655.62;1629683;87;21089;-60
2022/11/16 01:55:19;;;;;;;27.58;14.03;;;;;;;6.87;82.79;99656.84;1629848;88;21101;-62
2022/11/16 01:58:07;;;;;;;26.57;13.88;;;;;;;6.89;82.93;99658.86;1600423;88;21077;-60
2022/11/16 02:00:38;;;;;;;28.05;14.93;;;;;;;6.89;83.07;99655.30;1629937;88;21041;-60
2022/11/16 02:03:09;;;;;;;26.73;14.28;;;;;;;6.84;83.41;99658.59;1626935;87;21030;-60
2022/11/16 02:06:12;;;;;;;29.32;14.90;;;;;;;6.82;83.71;99657.94;1629430;88;21109;-59
2022/11/16 02:12:32;;;;;;;25.72;12.65;;;;;;;6.83;84.10;99658.27;1629913;88;21105;-59
2022/11/16 02:15:29;;;;;;;26.25;13.65;;;;;;;6.85;84.19;99652.63;1615509;89;21098;-60
2022/11/16 02:18:23;;;;;;;28.70;14.85;;;;;;;6.84;84.30;99659.95;1628827;87;21121;-60
2022/11/16 02:21:24;;;;;;;25.62;13.70;;;;;;;6.82;84.42;99654.38;1614936;89;21579;-59
2022/11/16 02:24:27;;;;;;;28.15;14.15;;;;;;;6.81;84.57;99652.17;1551523;89;21101;-58
2022/11/16 02:27:36;;;;;;;26.05;12.80;;;;;;;6.81;84.69;99644.00;1526808;94;21569;-58
2022/11/16 02:30:07;;;;;;;26.33;14.13;;;;;;;6.84;84.73;99645.50;1551906;92;21490;-60
2022/11/16 02:32:55;;;;;;;29.42;15.00;;;;;;;6.86;84.83;99640.70;1551621;92;21069;-58
2022/11/16 02:35:30;;;;;;;18.87;10.23;;;;;;;6.88;84.81;99645.44;1551885;92;21090;-59
2022/11/16 02:38:09;;;;;;;29.77;13.75;;;;;;;6.86;84.87;99635.25;1551548;92;21592;-60
2022/11/16 02:40:40;;;;;;;28.83;13.62;;;;;;;6.85;84.97;99630.33;1551849;92;21114;-59
2022/11/16 02:43:11;;;;;;;28.77;14.15;;;;;;;6.86;85.06;99626.57;1623902;88;21093;-61
2022/11/16 02:45:45;;;;;;;28.25;14.90;;;;;;;6.87;85.19;99624.69;1629718;88;21461;-59
2022/11/16 02:48:24;;;;;;;29.67;14.93;;;;;;;6.86;85.37;99621.13;1629717;88;21465;-60
2022/11/16 02:50:53;;;;;;;22.95;10.82;;;;;;;6.85;85.53;99620.80;1629563;88;21093;-59
2022/11/16 02:53:22;;;;;;;26.48;12.90;;;;;;;6.86;85.71;99617.56;1606196;88;21491;-60
2022/11/16 02:55:52;;;;;;;29.00;14.63;;;;;;;6.86;85.71;99625.20;1629646;88;21540;-59
2022/11/16 02:58:23;;;;;;;26.87;13.65;;;;;;;6.87;85.78;99626.89;1629692;88;21053;-59
2022/11/16 03:01:11;;;;;;;31.17;15.03;;;;;;;6.89;85.90;99623.98;1629742;87;21050;-59
2022/11/16 03:03:54;;;;;;;29.65;13.93;;;;;;;6.89;86.06;99619.89;1615318;89;21078;-59
2022/11/16 03:06:27;;;;;;;29.52;14.15;;;;;;;6.89;86.21;99623.46;1629575;87;21117;-60
2022/11/16 03:09:07;;;;;;;29.52;15.10;;;;;;;6.88;86.25;99613.61;1615336;89;21071;-60
2022/11/16 03:12:00;;;;;;;28.98;14.38;;;;;;;6.87;86.35;99613.80;1575795;91;21074;-59
2022/11/16 03:14:56;;;;;;;29.07;14.73;;;;;;;6.85;86.51;99611.79;1560413;92;21128;-59
2022/11/16 03:17:38;;;;;;;32.00;14.05;;;;;;;6.85;86.60;99610.42;1575799;91;21090;-59
2022/11/16 03:20:21;;;;;;;28.52;14.38;;;;;;;6.83;86.67;99605.69;1560546;92;21115;-61
2022/11/16 03:22:54;;;;;;;31.57;15.20;;;;;;;6.82;86.82;99602.13;1576856;89;21058;-59
2022/11/16 03:25:25;;;;;;;31.55;15.78;;;;;;;6.84;87.04;99596.48;1588281;89;21062;-59
2022/11/16 03:28:03;;;;;;;32.67;16.30;;;;;;;6.84;87.23;99606.86;1608558;88;21100;-62
2022/11/16 03:30:45;;;;;;;32.25;14.98;;;;;;;6.85;87.38;99603.63;1653888;86;21232;-59
2022/11/16 03:33:34;;;;;;;29.80;13.35;;;;;;;6.85;87.58;99603.10;1645733;87;21017;-61
2022/11/16 03:36:25;;;;;;;28.90;13.22;;;;;;;6.84;87.65;99608.73;1646772;84;21119;-60
2022/11/16 03:38:55;;;;;;;30.57;14.33;;;;;;;6.82;87.91;99598.56;1672479;84;21083;-60
2022/11/16 03:41:24;;;;;;;28.30;14.25;;;;;;;6.78;88.15;99593.17;1672939;86;21461;-59
2022/11/16 03:43:54;;;;;;;30.75;14.40;;;;;;;6.77;88.40;99595.58;1673034;84;21092;-61
2022/11/16 03:46:24;;;;;;;29.20;14.35;;;;;;;6.75;88.59;99601.73;1673782;84;21085;-58
2022/11/16 03:48:57;;;;;;;30.97;14.30;;;;;;;6.76;88.74;99595.25;1672994;86;21048;-59
2022/11/16 03:51:29;;;;;;;29.30;13.80;;;;;;;6.76;88.86;99598.81;1673137;86;21060;-59
2022/11/16 03:53:58;;;;;;;25.55;12.88;;;;;;;6.78;89.05;99604.06;1673251;86;21017;-59
2022/11/16 03:56:29;;;;;;;29.70;15.28;;;;;;;6.79;89.18;99601.67;1673053;86;21540;-59
2022/11/16 03:58:59;;;;;;;29.92;14.65;;;;;;;6.77;89.23;99594.21;1672931;86;21072;-60
2022/11/16 04:01:31;;;;;;;28.90;14.73;;;;;;;6.76;89.31;99593.37;1673074;86;21041;-60
2022/11/16 04:04:01;;;;;;;29.12;14.83;;;;;;;6.78;89.47;99593.17;1672855;85;21036;-60
2022/11/16 04:26:07;;;;;;;31.90;15.88;;;;;;;6.62;90.80;99577.92;1668959;86;21476;-60
2022/11/16 04:28:36;;;;;;;31.33;14.60;;;;;;;6.59;90.96;99579.16;1668798;86;21044;-60
2022/11/16 04:39:34;;;;;;;35.30;17.05;;;;;;;6.61;91.48;99571.64;1668977;86;21053;-60
2022/11/16 04:42:15;;;;;;;34.33;17.05;;;;;;;6.60;91.54;99567.23;1668886;84;21125;-60
2022/11/16 04:47:35;;;;;;;31.93;16.27;;;;;;;6.60;91.60;99558.23;1688915;85;21062;-59
2022/11/16 04:50:05;;;;;;;29.70;16.10;;;;;;;6.60;91.67;99550.91;1669037;86;21033;-61
2022/11/16 04:52:35;;;;;;;28.90;15.23;;;;;;;6.60;91.71;99553.63;1668746;86;21136;-61
2022/11/16 04:55:06;;;;;;;30.05;14.95;;;;;;;6.60;91.74;99545.46;1668814;86;21096;-59
2022/11/16 04:57:35;;;;;;;31.25;15.70;;;;;;;6.60;91.72;99552.27;1668993;84;21052;-59
2022/11/16 05:00:06;;;;;;;29.18;14.45;;;;;;;6.60;91.69;99555.50;1669001;84;21049;-60
2022/11/16 05:02:36;;;;;;;30.82;16.10;;;;;;;6.61;91.69;99553.95;1669136;86;21037;-60
2022/11/16 05:05:07;;;;;;;28.35;15.25;;;;;;;6.61;91.69;99548.51;1668827;84;21041;-61
2022/11/16 05:07:38;;;;;;;31.20;16.20;;;;;;;6.60;91.66;99552.27;1668895;86;21029;-59
2022/11/16 05:10:10;;;;;;;31.77;15.45;;;;;;;6.59;91.62;99551.94;1668427;86;21037;-60
2022/11/16 05:12:39;;;;;;;26.80;13.15;;;;;;;6.59;91.51;99553.82;1668985;84;21065;-60
2022/11/16 05:15:10;;;;;;;28.15;14.43;;;;;;;6.57;91.44;99542.28;1669325;86;21049;-59
2022/11/16 05:17:40;;;;;;;28.10;15.18;;;;;;;6.57;91.48;99548.57;1668822;86;21100;-59
2022/11/16 05:23:03;;;;;;;28.23;15.00;;;;;;;6.55;91.58;99554.72;1668996;84;21072;-60
2022/11/16 05:25:33;;;;;;;27.07;14.35;;;;;;;6.56;91.66;99544.16;1664049;86;21057;-60
2022/11/16 05:28:06;;;;;;;28.12;14.80;;;;;;;6.58;91.72;99543.97;1663764;86;21081;-60
2022/11/16 05:30:38;;;;;;;26.82;14.33;;;;;;;6.60;91.70;99546.82;1583663;90;21130;-60
2022/11/16 05:33:08;;;;;;;29.00;15.20;;;;;;;6.61;91.64;99547.15;1583612;90;21081;-59
2022/11/16 05:35:40;;;;;;;28.70;14.85;;;;;;;6.61;91.65;99548.51;1583532;89;21543;-60
2022/11/16 05:38:09;;;;;;;31.68;16.35;;;;;;;6.63;91.66;99552.39;1583406;89;21104;-60
2022/11/16 05:40:40;;;;;;;42.58;19.42;;;;;;;6.63;91.63;99547.80;1583909;89;21065;-60
2022/11/16 05:43:10;;;;;;;36.20;18.95;;;;;;;6.64;91.59;99538.59;1583606;90;21538;-59
2022/11/16 05:45:42;;;;;;;39.27;18.98;;;;;;;6.67;91.49;99540.09;1583743;89;21112;-60
2022/11/16 05:48:11;;;;;;;39.95;21.05;;;;;;;6.67;91.41;99544.17;1596505;88;21054;-61
2022/11/16 05:50:40;;;;;;;31.52;16.35;;;;;;;6.65;91.42;99539.44;1663829;86;21450;-59
2022/11/16 05:53:13;;;;;;;34.27;16.67;;;;;;;6.65;91.48;99537.56;1664237;84;21077;-60
2022/11/16 05:55:43;;;;;;;38.65;18.75;;;;;;;6.65;91.45;99532.63;1663954;85;21104;-59
2022/11/16 05:58:12;;;;;;;35.48;16.70;;;;;;;6.67;91.48;99531.92;1664101;86;21009;-59
2022/11/16 06:00:42;;;;;;;35.80;17.07;;;;;;;6.69;91.47;99538.02;1663683;85;21068;-61
2022/11/16 06:03:12;;;;;;;37.15;17.57;;;;;;;6.72;91.39;99535.42;1664041;86;21068;-61
2022/11/16 06:05:42;;;;;;;39.13;19.92;;;;;;;6.74;91.37;99535.55;1663990;86;21049;-59
2022/11/16 06:08:13;;;;;;;39.00;18.52;;;;;;;6.75;91.37;99532.31;1663979;85;21067;-61
2022/11/16 06:10:42;;;;;;;38.38;17.82;;;;;;;6.76;91.25;99536.72;1663846;86;21064;-60
2022/11/16 06:13:13;;;;;;;43.75;21.52;;;;;;;6.76;91.18;99538.92;1664062;85;21105;-59
2022/11/16 06:15:42;;;;;;;33.83;16.20;;;;;;;6.76;91.14;99534.00;1663719;86;21484;-62
2022/11/16 06:18:19;;;;;;;;;;;;;;;6.77;91.15;99532.44;1666214;86;21445;-60
2022/11/16 06:20:49;;;;;;;31.75;16.32;;;;;;;6.77;91.21;99539.25;1663666;86;20223;-60
2022/11/16 06:23:19;;;;;;;30.05;15.85;;;;;;;6.74;91.42;99523.82;1663907;85;21116;-59
2022/11/16 06:25:54;;;;;;;31.42;16.05;;;;;;;6.76;91.50;99529.91;1668103;84;21061;-60
2022/11/16 06:28:25;;;;;;;32.88;16.15;;;;;;;6.76;91.47;99523.11;1690152;85;21488;-60
2022/11/16 06:30:56;;;;;;;31.05;17.52;;;;;;;6.76;91.49;99526.67;1668781;86;21483;-59
2022/11/16 06:33:25;;;;;;;29.67;15.90;;;;;;;6.75;91.61;99520.91;1668714;84;21009;-62
2022/11/16 06:35:57;;;;;;;29.63;15.28;;;;;;;6.78;91.73;99517.79;1668425;84;21069;-60
2022/11/16 06:38:26;;;;;;;28.62;15.50;;;;;;;6.77;91.77;99526.99;1668952;85;21029;-61
2022/11/16 06:40:57;;;;;;;29.60;15.18;;;;;;;6.76;91.90;99525.83;1610297;88;21049;-60
2022/11/16 06:43:28;;;;;;;27.25;14.63;;;;;;;6.78;91.99;99523.75;1610163;89;21109;-61
2022/11/16 06:45:59;;;;;;;28.32;15.30;;;;;;;6.79;92.03;99522.72;1610290;89;21117;-62
2022/11/16 06:48:28;;;;;;;30.20;15.95;;;;;;;6.79;91.97;99520.84;1610078;88;21478;-61
2022/11/16 06:50:58;;;;;;;29.10;15.80;;;;;;;6.78;92.08;99518.31;1589719;87;21085;-60
2022/11/16 06:53:30;;;;;;;26.77;15.13;;;;;;;6.76;92.15;99521.23;1610161;89;21533;-62
2022/11/16 06:56:03;;;;;;;28.23;14.73;;;;;;;6.76;92.36;99514.94;1589736;89;21065;-60
2022/11/16 06:58:34;;;;;;;30.25;15.90;;;;;;;6.77;92.50;99511.18;1625535;86;21118;-62
2022/11/16 07:01:09;;;;;;;27.27;15.25;;;;;;;6.77;92.56;99513.91;1668851;84;21528;-61
2022/11/16 07:03:41;;;;;;;28.87;15.58;;;;;;;6.74;92.71;99514.29;1668806;84;21069;-61
2022/11/16 07:06:12;;;;;;;28.25;15.95;;;;;;;6.73;92.86;99512.09;1668812;84;21017;-60
2022/11/16 07:08:44;;;;;;;29.30;15.30;;;;;;;6.71;93.01;99508.72;1669071;84;21069;-59
2022/11/16 07:11:14;;;;;;;31.68;15.80;;;;;;;6.73;93.17;99511.25;1668728;86;21002;-60
2022/11/16 07:13:45;;;;;;;29.55;15.88;;;;;;;6.74;93.19;99506.13;1668719;84;21036;-60
2022/11/16 07:16:15;;;;;;;32.67;17.48;;;;;;;6.74;93.26;99511.05;1642480;86;21069;-61
2022/11/16 07:18:48;;;;;;;32.45;17.73;;;;;;;6.76;93.37;99513.06;1642484;86;21041;-59
2022/11/16 07:21:17;;;;;;;31.25;17.48;;;;;;;6.79;93.42;99508.59;1668861;86;21017;-60
2022/11/16 07:23:47;;;;;;;30.45;16.15;;;;;;;6.84;93.42;99508.00;1668611;86;21471;-60
2022/11/16 07:26:19;;;;;;;29.45;15.55;;;;;;;6.83;93.28;99511.76;1668605;86;21092;-61
2022/11/16 07:28:51;;;;;;;32.60;15.53;;;;;;;6.81;93.22;99503.79;1668501;84;21445;-61
2022/11/16 07:31:23;;;;;;;28.60;15.38;;;;;;;6.81;93.20;99502.42;1668700;84;21080;-58
2022/11/16 07:33:54;;;;;;;28.27;13.60;;;;;;;6.84;93.23;99510.20;1665066;85;21021;-58
2022/11/16 07:36:35;;;;;;;23.85;13.10;;;;;;;6.83;93.14;99509.04;1667328;85;21037;-57
2022/11/16 07:39:08;;;;;;;23.90;12.00;;;;;;;6.80;93.16;99503.98;1668819;84;21044;-58
2022/11/16 07:41:37;;;;;;;26.90;12.47;;;;;;;6.79;93.19;99500.42;1668935;86;21446;-61
2022/11/16 07:44:12;;;;;;;22.48;11.88;;;;;;;6.82;93.12;99505.99;1668509;85;21017;-59
2022/11/16 07:46:43;;;;;;;25.62;11.85;;;;;;;6.83;93.07;99503.59;1668633;86;21080;-57
2022/11/16 07:49:17;;;;;;;20.75;9.95;;;;;;;6.84;92.92;99497.11;1668963;85;21009;-58
2022/11/16 07:51:49;;;;;;;21.60;10.65;;;;;;;6.80;92.95;99491.22;1668349;86;21041;-58
2022/11/16 07:54:23;;;;;;;21.55;10.10;;;;;;;6.77;92.87;99490.77;1666656;86;21080;-59
2022/11/16 07:56:54;;;;;;;23.27;10.93;;;;;;;6.76;93.02;99488.56;1668379;84;21108;-60
2022/11/16 07:59:24;;;;;;;21.07;10.45;;;;;;;6.77;93.04;99489.41;1668654;85;21089;-59
2022/11/16 08:01:55;;;;;;;20.80;10.82;;;;;;;6.77;93.04;99489.41;1642284;86;21037;-58
2022/11/16 08:04:26;;;;;;;19.00;10.53;;;;;;;6.79;93.09;99489.53;1668803;84;21115;-59
2022/11/16 08:06:55;;;;;;;16.97;9.95;;;;;;;6.78;93.04;99494.65;1669007;84;21465;-59
2022/11/16 08:09:25;;;;;;;20.50;10.10;;;;;;;6.81;93.08;99496.14;1668750;86;21061;-60
2022/11/16 08:11:55;;;;;;;17.35;9.88;;;;;;;6.78;92.97;99495.17;1668807;86;21080;-60
2022/11/16 08:14:25;;;;;;;15.45;8.80;;;;;;;6.74;92.90;99498.80;1702538;84;21045;-58
2022/11/16 08:16:56;;;;;;;15.80;9.15;;;;;;;6.73;92.89;99491.67;1702508;84;21050;-58
2022/11/16 08:19:26;;;;;;;18.60;9.55;;;;;;;6.74;92.88;99497.96;1702610;84;21037;-57
2022/11/16 08:21:56;;;;;;;13.50;7.67;;;;;;;6.74;92.88;99496.59;1668878;86;21088;-57
2022/11/16 08:24:27;;;;;;;13.45;7.30;;;;;;;6.73;92.94;99497.12;1668650;84;21021;-57
2022/11/16 08:26:57;;;;;;;11.00;6.03;;;;;;;6.74;92.91;99497.96;1721738;83;21110;-58
2022/11/16 08:29:28;;;;;;;10.13;5.50;;;;;;;6.76;92.77;99498.61;1702726;84;21045;-58
2022/11/16 08:31:58;;;;;;;8.80;5.12;;;;;;;6.77;92.65;99502.50;1690123;84;21451;-59
2022/11/16 08:34:27;;;;;;;9.45;5.10;;;;;;;6.78;92.48;99502.81;1689973;85;21105;-58
2022/11/16 08:36:58;;;;;;;7.42;4.62;;;;;;;6.76;92.26;99499.97;1702518;84;21434;-58
2022/11/16 08:39:33;;;;;;;6.50;3.95;;;;;;;6.69;92.17;99508.07;1701530;84;21037;-59
2022/11/16 08:42:02;;;;;;;7.75;4.45;;;;;;;6.64;92.25;99504.57;1664877;85;21034;-58
2022/11/16 08:44:32;;;;;;;9.03;4.78;;;;;;;6.65;92.18;99501.33;1668561;86;21476;-58
2022/11/16 08:47:03;;;;;;;5.30;3.67;;;;;;;6.63;92.20;99500.16;1668807;86;21017;-58
2022/11/16 08:49:46;;;;;;;6.87;3.83;;;;;;;6.65;92.31;99501.33;1675184;84;21511;-59
2022/11/16 08:52:28;;;;;;;9.83;3.83;;;;;;;6.65;92.43;99499.97;1686008;84;21549;-58
2022/11/16 08:55:09;;;;;;;6.12;3.60;;;;;;;6.63;92.34;99503.41;1639018;86;21135;-58
2022/11/16 08:57:44;;;;;;;6.53;3.55;;;;;;;6.62;92.26;99509.88;1702473;84;21535;-59
2022/11/16 09:00:15;;;;;;;6.25;3.55;;;;;;;6.62;92.32;99494.91;1667467;86;21076;-57
2022/11/16 09:02:46;;;;;;;7.50;3.80;;;;;;;6.65;92.34;99498.61;1727398;83;21027;-59
2022/11/16 09:05:17;;;;;;;8.70;4.17;;;;;;;6.64;92.10;99488.24;1727138;83;21083;-60
2022/11/16 09:07:48;;;;;;;6.42;3.92;;;;;;;6.65;92.32;99500.81;1690190;84;21019;-59
2022/11/16 09:10:21;;;;;;;7.37;4.55;;;;;;;6.66;92.30;99501.66;1689904;84;21066;-61
2022/11/16 09:12:55;;;;;;;6.10;4.12;;;;;;;6.63;92.25;99495.24;1727192;82;21036;-60
2022/11/16 09:15:36;;;;;;;7.12;4.37;;;;;;;6.59;92.17;99494.78;1727081;83;21092;-61
2022/11/16 09:18:11;;;;;;;7.40;4.28;;;;;;;6.56;92.23;99493.81;1727253;83;21043;-60
2022/11/16 09:20:44;;;;;;;10.43;5.00;;;;;;;6.56;92.40;99495.17;1689994;85;21510;-61
2022/11/16 09:23:14;;;;;;;9.48;5.28;;;;;;;6.57;92.45;99495.50;1689836;85;21030;-60
2022/11/16 09:25:47;;;;;;;8.90;5.00;;;;;;;6.56;92.60;99495.17;1688693;85;21556;-60
2022/11/16 09:28:30;;;;;;;9.55;4.70;;;;;;;6.56;92.76;99492.45;1667989;85;21114;-61
2022/11/16 09:31:06;;;;;;;8.43;4.25;;;;;;;6.57;92.74;99488.70;1658296;85;21051;-60
2022/11/16 09:33:36;;;;;;;8.98;4.72;;;;;;;6.58;92.75;99490.37;1657544;86;21082;-60
2022/11/16 09:36:08;;;;;;;9.15;4.20;;;;;;;6.57;92.87;99486.49;1657968;86;21130;-59
2022/11/16 09:38:44;;;;;;;9.10;4.45;;;;;;;6.62;93.16;99485.39;1658199;86;21031;-61
2022/11/16 09:41:27;;;;;;;8.20;4.37;;;;;;;6.62;92.88;99482.16;1658593;86;21062;-59
2022/11/16 09:44:12;;;;;;;7.95;4.87;;;;;;;6.62;92.88;99482.16;1658358;86;21067;-60
2022/11/16 09:46:52;;;;;;;8.40;4.75;;;;;;;6.61;92.98;99476.91;1644866;86;21054;-60
2022/11/16 09:49:54;;;;;;;10.13;5.10;;;;;;;6.61;92.97;99479.11;1658394;86;21090;-60
2022/11/16 09:52:37;;;;;;;12.45;5.80;;;;;;;6.61;92.90;99475.54;1680516;85;21094;-59
2022/11/16 09:55:27;;;;;;;9.38;5.05;;;;;;;6.60;93.03;99471.98;1663602;86;21073;-61
2022/11/16 09:57:59;;;;;;;8.45;4.72;;;;;;;6.59;93.00;99470.30;1663540;86;21104;-60
2022/11/16 10:00:43;;;;;;;9.30;5.30;;;;;;;6.63;94.30;99469.38;1636660;88;21532;-61
2022/11/16 10:03:13;;;;;;;9.78;4.53;;;;;;;6.95;96.17;99470.70;1636717;86;21057;-60
2022/11/16 10:06:02;;;;;;;8.58;4.70;;;;;;;7.28;96.99;99461.45;1636622;88;21136;-60
2022/11/16 10:08:50;;;;;;;9.40;4.60;;;;;;;7.49;96.80;99453.20;1636444;88;21489;-60
2022/11/16 10:11:33;;;;;;;;;;;;;;;7.73;96.55;99453.21;1639027;88;21512;-61
2022/11/16 10:14:14;;;;;;;9.03;4.55;;;;;;;7.89;94.52;99458.88;1636731;88;20223;-59
2022/11/16 10:17:25;;;;;;;9.03;4.65;;;;;;;8.01;93.29;99453.67;1636656;88;21045;-60
2022/11/16 10:20:03;;;;;;;7.80;4.10;;;;;;;8.08;92.16;99451.28;1636675;87;21068;-60
2022/11/16 10:22:58;;;;;;;9.20;4.67;;;;;;;8.31;91.20;99444.09;1636588;88;21547;-59
2022/11/16 10:25:42;;;;;;;9.65;4.62;;;;;;;8.42;89.98;99448.98;1646621;85;21495;-61
2022/11/16 10:29:09;;;;;;;10.75;4.92;;;;;;;8.52;89.17;99450.82;1650625;86;21070;-60
2022/11/16 10:32:05;;;;;;;9.05;5.15;;;;;;;8.72;88.11;99452.20;1662027;86;21054;-60
2022/11/16 10:34:52;;;;;;;11.57;5.33;;;;;;;8.60;85.00;99451.14;1662389;86;21093;-61
2022/11/16 10:37:22;;;;;;;9.55;5.12;;;;;;;8.37;84.36;99439.21;1657246;86;22146;-59
2022/11/16 10:39:54;;;;;;;10.98;6.62;;;;;;;8.15;83.86;99444.48;1638761;87;21876;-60
2022/11/16 10:42:38;;;;;;;9.30;5.70;;;;;;;7.92;83.85;99436.13;1638968;87;21082;-60
2022/11/16 10:45:20;;;;;;;9.00;5.15;;;;;;;7.75;83.81;99434.77;1638700;87;21556;-59
2022/11/16 10:47:57;;;;;;;9.18;5.70;;;;;;;7.59;84.25;99433.74;1638964;87;21042;-61
2022/11/16 10:50:44;;;;;;;11.18;5.90;;;;;;;7.47;84.57;99428.55;1638979;87;21178;-61
2022/11/16 10:53:15;;;;;;;10.70;6.33;;;;;;;7.41;85.11;99424.74;1675114;85;21078;-61
2022/11/16 10:55:45;;;;;;;13.05;6.60;;;;;;;7.33;85.14;99426.27;1657784;86;21030;-62
2022/11/16 10:58:14;;;;;;;10.95;5.58;;;;;;;7.21;85.43;99427.35;1672411;85;21046;-63
2022/11/16 11:00:50;;;;;;;10.98;5.03;;;;;;;7.16;86.02;99425.75;1671499;84;21065;-61
2022/11/16 11:03:29;;;;;;;11.93;6.12;;;;;;;7.11;86.16;99425.99;1663555;85;21109;-61
2022/11/16 11:05:58;;;;;;;11.48;6.00;;;;;;;7.07;86.60;99424.70;1663586;86;21090;-63
2022/11/16 11:08:30;;;;;;;11.40;6.00;;;;;;;6.98;86.91;99428.95;1663573;86;21469;-61
2022/11/16 11:14:04;;;;;;;12.10;5.42;;;;;;;6.97;87.60;99426.42;1663489;86;21065;-62
2022/11/16 11:16:33;;;;;;;8.28;5.40;;;;;;;6.96;87.67;99428.83;1663686;85;21061;-60
2022/11/16 11:19:26;;;;;;;11.43;5.37;;;;;;;6.93;87.73;99431.94;1663536;86;21041;-61
2022/11/16 11:22:00;;;;;;;10.25;5.40;;;;;;;6.89;87.98;99427.94;1659510;86;21081;-61
2022/11/16 11:24:29;;;;;;;8.98;4.42;;;;;;;6.88;88.03;99426.25;1663563;86;21473;-62
2022/11/16 11:27:00;;;;;;;8.08;4.17;;;;;;;6.79;87.77;99421.99;1664647;86;21072;-61
2022/11/16 11:29:31;;;;;;;8.70;4.72;;;;;;;6.73;87.72;99420.90;1702252;84;21030;-62
2022/11/16 11:32:06;;;;;;;6.42;4.37;;;;;;;6.70;87.88;99421.81;1689671;84;21066;-64
2022/11/16 11:34:44;;;;;;;8.85;4.85;;;;;;;6.71;87.90;99427.58;1667912;86;21037;-62
2022/11/16 11:37:18;;;;;;;7.45;4.33;;;;;;;6.70;87.83;99431.34;1668623;85;21092;-61
2022/11/16 11:39:46;;;;;;;8.38;5.05;;;;;;;6.71;87.90;99427.06;1702332;84;21405;-63
2022/11/16 11:42:20;;;;;;;9.15;5.30;;;;;;;6.75;87.86;99426.98;1689889;85;21106;-64
2022/11/16 11:44:59;;;;;;;11.28;6.50;;;;;;;6.70;87.73;99421.81;1702325;84;21050;-61
2022/11/16 11:47:42;;;;;;;14.25;7.55;;;;;;;6.63;88.03;99419.88;1689926;85;21054;-61
2022/11/16 11:50:33;;;;;;;11.05;6.53;;;;;;;6.60;88.19;99418.06;1686576;84;21485;-62
2022/11/16 11:53:27;;;;;;;16.62;9.08;;;;;;;6.55;88.37;99420.02;1693373;84;21089;-61
2022/11/16 11:55:59;;;;;;;13.65;8.20;;;;;;;6.51;88.49;99426.05;1672003;83;21062;-61
2022/11/16 11:58:31;;;;;;;14.45;8.03;;;;;;;6.46;88.81;99429.32;1650416;85;21073;-62
2022/11/16 12:01:45;;;;;;;15.35;8.55;;;;;;;6.47;89.12;99426.92;1640332;86;21101;-62
2022/11/16 12:04:50;;;;;;;14.28;8.23;;;;;;;6.49;89.13;99433.53;1702616;84;21053;-60
2022/11/16 12:07:59;;;;;;;16.60;9.28;;;;;;;6.51;89.13;99435.05;1668460;85;21041;-60
2022/11/16 12:10:57;;;;;;;15.08;9.25;;;;;;;6.50;88.77;99435.22;1668408;86;21064;-61
2022/11/16 12:13:46;;;;;;;16.55;9.13;;;;;;;6.47;88.89;99428.80;1651776;84;21070;-62
2022/11/16 12:16:42;;;;;;;15.90;8.48;;;;;;;6.45;88.96;99429.00;1668163;86;21092;-64
2022/11/16 12:19:34;;;;;;;15.13;8.38;;;;;;;6.41;88.99;99430.42;1668112;86;21081;-61
2022/11/16 12:22:32;;;;;;;18.42;9.55;;;;;;;6.36;88.87;99431.52;1667851;86;21075;-62
2022/11/16 12:25:12;;;;;;;17.90;9.08;;;;;;;6.26;89.00;99420.97;1667689;86;21112;-63
2022/11/16 12:28:18;;;;;;;16.10;7.83;;;;;;;6.29;89.15;99423.81;1658125;86;21128;-63
2022/11/16 12:31:20;;;;;;;13.15;6.33;;;;;;;6.23;89.05;99421.87;1657299;86;21071;-61
2022/11/16 12:34:21;;;;;;;11.45;5.85;;;;;;;6.19;89.17;99426.86;1676463;84;21468;-61
2022/11/16 12:37:16;;;;;;;9.83;5.72;;;;;;;6.24;89.43;99426.28;1693270;84;21063;-61
2022/11/16 12:40:08;;;;;;;11.93;6.45;;;;;;;6.22;89.35;99413.39;1657757;86;21008;-62
2022/11/16 12:43:07;;;;;;;10.85;6.00;;;;;;;6.14;89.36;99422.52;1647342;86;21038;-64
2022/11/16 12:45:52;;;;;;;11.73;5.97;;;;;;;6.11;89.38;99424.78;1666301;86;21086;-61
2022/11/16 12:48:52;;;;;;;13.25;6.20;;;;;;;6.08;89.54;99419.20;1666185;85;21482;-63
2022/11/16 12:51:53;;;;;;;11.15;6.00;;;;;;;6.12;89.83;99427.31;1666393;86;21081;-62
2022/11/16 12:54:50;;;;;;;9.48;5.78;;;;;;;6.16;89.84;99420.45;1666522;86;21057;-62